createdAt,value
2019-04-28T00:02:13.301Z,68.02
2019-04-28T00:04:41.769Z,68.05
2019-04-28T00:07:11.933Z,68.15
2019-04-28T00:09:41.451Z,67.99
2019-04-28T00:12:11.507Z,67.87
2019-04-28T00:14:41.740Z,68.11
2019-04-28T00:17:11.154Z,68.33
2019-04-28T00:19:40.878Z,68.53
2019-04-28T00:22:31.503Z,68.62
2019-04-28T00:25:07.957Z,68.43
2019-04-28T00:27:36.436Z,68.45
2019-04-28T00:30:06.121Z,68.49
2019-04-28T00:32:34.573Z,68.73
2019-04-28T00:35:03.054Z,68.59
2019-04-28T00:37:33.504Z,68.42
2019-04-28T00:40:01.985Z,68.28
2019-04-28T00:42:31.487Z,68.48
2019-04-28T00:45:01.682Z,68.53
2019-04-28T00:47:31.216Z,68.68
2019-04-28T00:50:01.942Z,68.67
2019-04-28T00:52:31.831Z,68.80
2019-04-28T00:55:01.194Z,68.76
2019-04-28T00:57:30.993Z,69.01
2019-04-28T00:59:59.621Z,68.74
2019-04-28T01:02:38.625Z,68.88
2019-04-28T01:05:08.337Z,68.73
2019-04-28T01:07:36.896Z,68.81
2019-04-28T01:10:05.826Z,68.74
2019-04-28T01:12:34.523Z,68.47
2019-04-28T01:15:04.857Z,68.50
2019-04-28T01:17:41.549Z,68.51
2019-04-28T01:20:12.004Z,68.94
2019-04-28T01:22:40.752Z,69.19
2019-04-28T01:25:10.691Z,68.85
2019-04-28T01:27:51.905Z,68.86
2019-04-28T01:30:40.159Z,68.72
2019-04-28T01:33:24.714Z,68.99
2019-04-28T01:35:53.190Z,69.00
2019-04-28T01:38:21.654Z,68.74
2019-04-28T01:40:50.153Z,69.02
2019-04-28T01:43:19.615Z,69.11
2019-04-28T01:45:50.105Z,69.12
2019-04-28T01:48:19.855Z,69.10
2019-04-28T01:50:50.003Z,69.26
2019-04-28T01:53:19.922Z,69.57
2019-04-28T01:55:49.518Z,69.70
2019-04-28T01:58:20.415Z,69.60
2019-04-28T02:00:48.315Z,69.59
2019-04-28T02:03:16.771Z,69.58
2019-04-28T02:05:45.487Z,70.01
2019-04-28T02:08:13.975Z,69.81
2019-04-28T02:10:42.515Z,70.20
2019-04-28T02:13:11.435Z,70.29
2019-04-28T02:15:40.119Z,70.12
2019-04-28T02:18:09.932Z,70.08
2019-04-28T02:20:40.103Z,69.89
2019-04-28T02:23:14.545Z,69.62
2019-04-28T02:25:43.019Z,69.48
2019-04-28T02:28:11.857Z,69.51
2019-04-28T02:30:48.479Z,69.65
2019-04-28T02:33:11.273Z,69.80
2019-04-28T02:35:41.790Z,69.74
2019-04-28T02:38:11.494Z,69.80
2019-04-28T02:40:40.600Z,69.94
2019-04-28T02:43:11.434Z,69.91
2019-04-28T02:45:41.301Z,70.21
2019-04-28T02:48:14.397Z,70.27
2019-04-28T02:51:01.297Z,70.12
2019-04-28T02:53:33.630Z,70.32
2019-04-28T02:56:02.629Z,70.20
2019-04-28T02:58:31.407Z,70.52
2019-04-28T03:01:11.289Z,70.40
2019-04-28T03:03:30.890Z,70.21
2019-04-28T03:06:01.493Z,70.06
2019-04-28T03:08:30.600Z,70.38
2019-04-28T03:11:00.890Z,70.29
2019-04-28T03:13:31.137Z,70.29
2019-04-28T03:16:01.517Z,70.18
2019-04-28T03:18:31.735Z,70.31
2019-04-28T03:21:01.638Z,70.66
2019-04-28T03:23:31.095Z,71.13
2019-04-28T03:26:25.144Z,70.77
2019-04-28T03:29:02.393Z,70.97
2019-04-28T03:32:04.164Z,70.87
2019-04-28T03:34:06.796Z,70.65
2019-04-28T03:36:35.551Z,70.75
2019-04-28T03:39:04.552Z,70.80
2019-04-28T03:41:33.031Z,70.71
2019-04-28T03:44:01.548Z,70.71
2019-04-28T03:46:31.657Z,70.77
2019-04-28T03:49:00.928Z,70.70
2019-04-28T03:51:30.890Z,71.24
2019-04-28T03:54:00.608Z,71.41
2019-04-28T03:56:30.981Z,71.62
2019-04-28T03:59:00.426Z,71.59
2019-04-28T04:01:30.507Z,71.65
2019-04-28T04:04:03.019Z,71.42
2019-04-28T04:06:31.067Z,71.18
2019-04-28T04:09:00.306Z,71.28
2019-04-28T04:11:38.208Z,71.31
2019-04-28T04:14:13.906Z,71.56
2019-04-28T04:16:50.795Z,71.73
2019-04-28T04:19:20.360Z,71.69
2019-04-28T04:21:50.369Z,71.85
2019-04-28T04:24:20.537Z,71.82
2019-04-28T04:26:50.579Z,71.84
2019-04-28T04:29:21.609Z,71.68
2019-04-28T04:31:51.194Z,71.67
2019-04-28T04:34:20.297Z,71.82
2019-04-28T04:36:50.928Z,71.43
2019-04-28T04:39:20.666Z,71.63
2019-04-28T04:41:50.399Z,71.43
2019-04-28T04:44:21.154Z,71.37
2019-04-28T04:46:50.897Z,71.47
2019-04-28T04:49:21.463Z,71.48
2019-04-28T04:51:50.853Z,71.52
2019-04-28T04:54:20.421Z,71.74
2019-04-28T04:56:50.081Z,71.80
2019-04-28T04:59:20.247Z,71.58
2019-04-28T05:02:02.637Z,71.65
2019-04-28T05:05:02.149Z,71.83
2019-04-28T05:07:31.092Z,72.13
2019-04-28T05:09:59.647Z,72.00
2019-04-28T05:12:28.116Z,72.22
2019-04-28T05:14:57.146Z,72.27
2019-04-28T05:17:26.044Z,72.30
2019-04-28T05:19:54.570Z,72.02
2019-04-28T05:22:24.770Z,71.50
2019-04-28T05:25:02.267Z,71.66
2019-04-28T05:27:32.556Z,71.32
2019-04-28T05:30:04.354Z,71.38
2019-04-28T05:32:42.635Z,71.72
2019-04-28T05:35:01.784Z,71.96
2019-04-28T05:37:30.506Z,72.27
2019-04-28T05:40:00.841Z,72.32
2019-04-28T05:42:30.249Z,72.13
2019-04-28T05:44:59.972Z,72.06
2019-04-28T05:47:30.419Z,72.18
2019-04-28T05:50:10.688Z,72.38
2019-04-28T05:53:01.185Z,72.25
2019-04-28T05:55:39.355Z,72.44
2019-04-28T05:58:17.203Z,72.52
2019-04-28T06:01:06.882Z,72.59
2019-04-28T06:03:35.562Z,72.65
2019-04-28T06:06:04.035Z,72.77
2019-04-28T06:08:50.836Z,72.76
2019-04-28T06:11:35.147Z,72.82
2019-04-28T06:14:03.640Z,73.11
2019-04-28T06:16:32.103Z,73.14
2019-04-28T06:19:01.123Z,72.65
2019-04-28T06:21:29.608Z,72.50
2019-04-28T06:23:58.144Z,72.47
2019-04-28T06:26:26.627Z,72.10
2019-04-28T06:28:55.187Z,72.33
2019-04-28T06:31:23.801Z,72.42
2019-04-28T06:33:52.743Z,72.60
2019-04-28T06:36:21.345Z,72.78
2019-04-28T06:38:49.995Z,72.87
2019-04-28T06:41:18.584Z,73.17
2019-04-28T06:43:47.077Z,73.32
2019-04-28T06:46:15.546Z,72.95
2019-04-28T06:48:44.314Z,73.04
2019-04-28T06:51:12.765Z,73.19
2019-04-28T06:53:41.581Z,73.19
2019-04-28T06:56:10.047Z,72.80
2019-04-28T06:58:38.680Z,72.82
2019-04-28T07:01:07.154Z,72.80
2019-04-28T07:03:35.651Z,72.92
2019-04-28T07:06:04.237Z,72.99
2019-04-28T07:08:32.761Z,73.26
2019-04-28T07:11:01.307Z,73.51
2019-04-28T07:13:29.781Z,73.90
2019-04-28T07:15:58.405Z,73.42
2019-04-28T07:18:26.853Z,73.37
2019-04-28T07:21:26.890Z,72.93
2019-04-28T07:23:55.366Z,73.05
2019-04-28T07:26:23.859Z,73.34
2019-04-28T07:28:52.511Z,73.36
2019-04-28T07:31:22.859Z,73.28
2019-04-28T07:33:51.325Z,73.16
2019-04-28T07:36:19.805Z,73.08
2019-04-28T07:38:48.282Z,73.02
2019-04-28T07:41:16.761Z,73.05
2019-04-28T07:43:45.531Z,72.95
2019-04-28T07:46:14.192Z,73.12
2019-04-28T07:48:42.649Z,73.06
2019-04-28T07:51:11.211Z,73.17
2019-04-28T07:53:47.796Z,73.34
2019-04-28T07:56:16.338Z,73.26
2019-04-28T07:58:44.949Z,73.66
2019-04-28T08:01:13.605Z,73.99
2019-04-28T08:03:49.328Z,74.07
2019-04-28T08:06:12.319Z,73.85
2019-04-28T08:08:40.799Z,73.51
2019-04-28T08:11:09.337Z,73.52
2019-04-28T08:13:37.799Z,73.66
2019-04-28T08:16:06.589Z,73.67
2019-04-28T08:18:35.072Z,73.95
2019-04-28T08:21:03.547Z,73.82
2019-04-28T08:23:32.046Z,73.82
2019-04-28T08:26:00.652Z,73.84
2019-04-28T08:28:29.108Z,73.87
2019-04-28T08:30:57.571Z,74.10
2019-04-28T08:34:01.686Z,74.02
2019-04-28T08:36:21.474Z,73.90
2019-04-28T08:38:49.941Z,73.92
2019-04-28T08:41:18.440Z,73.79
2019-04-28T08:43:46.907Z,74.03
2019-04-28T08:46:15.417Z,74.34
2019-04-28T08:48:43.875Z,74.73
2019-04-28T08:51:12.434Z,74.54
2019-04-28T08:53:40.882Z,74.54
2019-04-28T08:56:09.458Z,74.55
2019-04-28T08:58:37.998Z,74.45
2019-04-28T09:01:06.729Z,74.57
2019-04-28T09:03:35.484Z,74.87
2019-04-28T09:06:03.982Z,74.81
2019-04-28T09:08:32.440Z,75.17
2019-04-28T09:11:00.980Z,75.22
2019-04-28T09:13:29.626Z,75.64
2019-04-28T09:15:58.089Z,75.39
2019-04-28T09:18:26.532Z,75.69
2019-04-28T09:20:55.014Z,75.15
2019-04-28T09:23:23.485Z,74.94
2019-04-28T09:25:51.939Z,74.76
2019-04-28T09:28:20.392Z,74.56
2019-04-28T09:30:49.179Z,74.70
2019-04-28T09:33:17.630Z,74.86
2019-04-28T09:35:46.317Z,75.12
2019-04-28T09:38:15.174Z,75.27
2019-04-28T09:40:43.640Z,75.03
2019-04-28T09:43:19.429Z,75.07
2019-04-28T09:45:50.687Z,74.88
2019-04-28T09:48:19.161Z,74.78
2019-04-28T09:50:47.624Z,74.57
2019-04-28T09:53:16.072Z,74.75
2019-04-28T09:55:44.644Z,74.34
2019-04-28T09:58:13.108Z,74.38
2019-04-28T10:00:41.921Z,74.51
2019-04-28T10:03:10.768Z,74.48
2019-04-28T10:05:39.246Z,74.39
2019-04-28T10:08:07.711Z,74.35
2019-04-28T10:10:36.170Z,74.19
2019-04-28T10:13:04.658Z,74.22
2019-04-28T10:15:33.120Z,74.40
2019-04-28T10:18:01.709Z,74.69
2019-04-28T10:20:30.180Z,74.66
2019-04-28T10:22:58.649Z,74.47
2019-04-28T10:25:27.355Z,74.53
2019-04-28T10:27:55.827Z,74.32
2019-04-28T10:30:24.306Z,74.33
2019-04-28T10:32:52.773Z,74.28
2019-04-28T10:35:21.413Z,73.97
2019-04-28T10:37:49.856Z,73.50
2019-04-28T10:40:42.459Z,73.42
2019-04-28T10:43:11.164Z,73.43
2019-04-28T10:45:47.474Z,73.68
2019-04-28T10:48:16.131Z,73.53
2019-04-28T10:50:44.587Z,73.55
2019-04-28T10:53:13.077Z,73.09
2019-04-28T10:55:41.554Z,72.75
2019-04-28T10:58:10.011Z,72.82
2019-04-28T11:00:40.072Z,72.72
2019-04-28T11:03:08.908Z,73.12
2019-04-28T11:05:40.581Z,73.02
2019-04-28T11:08:16.030Z,72.55
2019-04-28T11:10:44.444Z,72.53
2019-04-28T11:13:13.085Z,72.46
2019-04-28T11:15:41.565Z,72.26
2019-04-28T11:18:11.322Z,72.34
2019-04-28T11:20:39.795Z,72.04
2019-04-28T11:23:08.256Z,71.92
2019-04-28T11:25:37.189Z,71.88
2019-04-28T11:28:05.652Z,71.89
2019-04-28T11:30:34.669Z,72.08
2019-04-28T11:33:13.367Z,71.78
2019-04-28T11:35:42.014Z,72.24
2019-04-28T11:38:10.474Z,72.38
2019-04-28T11:40:39.140Z,71.75
2019-04-28T11:43:07.589Z,71.73
2019-04-28T11:45:36.136Z,71.56
2019-04-28T11:48:04.600Z,71.57
2019-04-28T11:50:33.238Z,71.50
2019-04-28T11:53:01.691Z,71.07
2019-04-28T11:55:30.233Z,70.84
2019-04-28T11:57:58.704Z,70.10
2019-04-28T12:00:31.689Z,70.30
2019-04-28T12:03:00.273Z,70.58
2019-04-28T12:05:38.220Z,70.19
2019-04-28T12:08:05.609Z,70.53
2019-04-28T12:10:38.398Z,69.15
2019-04-28T12:13:34.998Z,70.09
2019-04-28T12:16:21.379Z,70.10
2019-04-28T12:18:55.271Z,70.39
2019-04-28T12:21:23.759Z,69.70
2019-04-28T12:23:52.505Z,69.59
2019-04-28T12:26:21.037Z,69.54
2019-04-28T12:28:49.668Z,69.48
2019-04-28T12:31:18.163Z,69.42
2019-04-28T12:33:46.644Z,69.37
2019-04-28T12:36:15.282Z,69.55
2019-04-28T12:38:44.022Z,69.19
2019-04-28T12:41:12.746Z,69.64
2019-04-28T12:43:41.222Z,69.85
2019-04-28T12:46:10.197Z,69.06
2019-04-28T12:48:38.727Z,69.99
2019-04-28T12:51:07.304Z,69.74
2019-04-28T12:53:35.786Z,69.99
2019-04-28T12:56:04.570Z,69.69
2019-04-28T12:58:33.050Z,69.71
2019-04-28T13:01:11.266Z,69.82
2019-04-28T13:03:43.769Z,68.87
2019-04-28T13:06:14.671Z,67.61
2019-04-28T13:08:43.152Z,67.58
2019-04-28T13:11:11.668Z,68.00
2019-04-28T13:13:40.207Z,66.89
2019-04-28T13:16:08.780Z,67.46
2019-04-28T13:18:37.257Z,67.31
2019-04-28T13:21:05.715Z,66.96
2019-04-28T13:23:34.382Z,67.05
2019-04-28T13:26:02.859Z,67.21
2019-04-28T13:28:31.533Z,66.85
2019-04-28T13:31:00.001Z,66.96
2019-04-28T13:33:28.486Z,66.99
2019-04-28T13:35:57.219Z,66.95
2019-04-28T13:38:26.530Z,66.85
2019-04-28T13:40:55.240Z,67.01
2019-04-28T13:43:23.979Z,66.76
2019-04-28T13:45:52.713Z,66.62
2019-04-28T13:48:21.171Z,66.84
2019-04-28T13:50:49.647Z,66.85
2019-04-28T13:53:18.170Z,66.64
2019-04-28T13:56:00.240Z,66.58
2019-04-28T13:58:31.187Z,66.26
2019-04-28T14:01:11.462Z,65.70
2019-04-28T14:03:57.542Z,65.57
2019-04-28T14:06:28.549Z,65.57
2019-04-28T14:08:56.734Z,65.69
2019-04-28T14:11:25.500Z,65.89
2019-04-28T14:13:53.958Z,65.23
2019-04-28T14:16:22.411Z,65.53
2019-04-28T14:18:51.122Z,65.26
2019-04-28T14:21:19.695Z,65.18
2019-04-28T14:23:48.223Z,64.84
2019-04-28T14:26:16.675Z,64.13
2019-04-28T14:28:45.395Z,64.12
2019-04-28T14:31:14.288Z,63.88
2019-04-28T14:33:42.730Z,63.21
2019-04-28T14:36:11.199Z,61.92
2019-04-28T14:38:39.683Z,61.32
2019-04-28T14:41:08.146Z,61.08
2019-04-28T14:43:36.634Z,60.90
2019-04-28T14:46:05.369Z,61.15
2019-04-28T14:48:33.998Z,60.29
2019-04-28T14:51:02.445Z,60.65
2019-04-28T14:53:30.884Z,57.59
2019-04-28T14:55:59.357Z,59.79
2019-04-28T14:58:27.839Z,60.15
2019-04-28T15:01:01.517Z,60.05
2019-04-28T15:03:31.393Z,58.82
2019-04-28T15:06:05.801Z,59.39
2019-04-28T15:09:11.572Z,59.66
2019-04-28T15:11:52.528Z,60.34
2019-04-28T15:14:21.111Z,60.97
2019-04-28T15:16:49.550Z,60.82
2019-04-28T15:19:18.176Z,60.61
2019-04-28T15:21:46.956Z,61.07
2019-04-28T15:24:15.753Z,61.13
2019-04-28T15:26:44.129Z,61.23
2019-04-28T15:29:12.850Z,60.94
2019-04-28T15:31:41.346Z,61.04
2019-04-28T15:34:09.832Z,60.21
2019-04-28T15:36:39.053Z,60.08
2019-04-28T15:39:09.114Z,60.44
2019-04-28T15:41:37.590Z,60.46
2019-04-28T15:44:06.053Z,59.18
2019-04-28T15:46:34.560Z,59.12
2019-04-28T15:49:03.245Z,57.90
2019-04-28T15:51:31.790Z,57.56
2019-04-28T15:54:00.446Z,56.47
2019-04-28T15:56:37.284Z,56.02
2019-04-28T15:59:06.960Z,56.10
2019-04-28T16:01:35.481Z,56.11
2019-04-28T16:04:04.079Z,56.11
2019-04-28T16:06:32.898Z,56.53
2019-04-28T16:09:01.344Z,55.89
2019-04-28T16:11:29.969Z,55.79
2019-04-28T16:13:58.474Z,55.83
2019-04-28T16:16:27.012Z,55.63
2019-04-28T16:18:55.657Z,55.24
2019-04-28T16:21:24.133Z,55.00
2019-04-28T16:23:52.585Z,54.39
2019-04-28T16:26:22.955Z,54.31
2019-04-28T16:28:51.306Z,54.29
2019-04-28T16:31:19.826Z,54.49
2019-04-28T16:33:48.366Z,54.53
2019-04-28T16:36:16.967Z,55.27
2019-04-28T16:38:45.506Z,55.35
2019-04-28T16:41:17.806Z,54.59
2019-04-28T16:43:49.531Z,54.80
2019-04-28T16:46:18.407Z,54.65
2019-04-28T16:48:47.233Z,54.61
2019-04-28T16:51:15.693Z,55.02
2019-04-28T16:53:44.170Z,55.02
2019-04-28T16:56:30.068Z,55.12
2019-04-28T16:59:23.803Z,54.26
2019-04-28T17:01:56.458Z,54.47
2019-04-28T17:04:25.019Z,54.44
2019-04-28T17:06:53.478Z,54.44
2019-04-28T17:09:22.008Z,54.40
2019-04-28T17:11:50.684Z,54.57
2019-04-28T17:14:19.139Z,54.73
2019-04-28T17:16:47.678Z,54.81
2019-04-28T17:19:16.344Z,55.30
2019-04-28T17:21:44.819Z,55.58
2019-04-28T17:24:13.593Z,55.52
2019-04-28T17:26:42.037Z,55.37
2019-04-28T17:29:10.584Z,55.51
2019-04-28T17:31:39.048Z,55.69
2019-04-28T17:34:07.759Z,55.76
2019-04-28T17:36:36.266Z,55.95
2019-04-28T17:39:08.293Z,56.06
2019-04-28T17:41:36.766Z,56.10
2019-04-28T17:44:05.729Z,56.39
2019-04-28T17:46:34.369Z,56.22
2019-04-28T17:49:02.917Z,56.30
2019-04-28T17:51:31.403Z,56.54
2019-04-28T17:53:59.880Z,56.50
2019-04-28T17:56:28.586Z,56.62
2019-04-28T17:58:57.052Z,56.85
2019-04-28T18:01:43.431Z,56.80
2019-04-28T18:04:29.813Z,56.62
2019-04-28T18:07:03.472Z,56.52
2019-04-28T18:09:31.970Z,56.47
2019-04-28T18:12:00.447Z,56.70
2019-04-28T18:14:28.933Z,56.79
2019-04-28T18:17:25.448Z,56.94
2019-04-28T18:19:53.917Z,57.03
2019-04-28T18:22:22.375Z,57.20
2019-04-28T18:24:51.010Z,57.17
2019-04-28T18:27:19.526Z,57.18
2019-04-28T18:29:47.979Z,57.18
2019-04-28T18:32:35.476Z,57.20
2019-04-28T18:35:12.498Z,57.32
2019-04-28T18:38:00.030Z,57.38
2019-04-28T18:40:38.477Z,57.40
2019-04-28T18:43:26.101Z,57.59
2019-04-28T18:45:54.594Z,57.67
2019-04-28T18:48:23.167Z,57.72
2019-04-28T18:50:51.625Z,57.79
2019-04-28T18:53:20.212Z,58.01
2019-04-28T18:55:48.695Z,58.14
2019-04-28T18:58:17.167Z,58.21
2019-04-28T19:00:52.166Z,58.41
2019-04-28T19:03:21.058Z,58.38
2019-04-28T19:05:51.254Z,58.63
2019-04-28T19:08:48.964Z,58.66
2019-04-28T19:11:14.333Z,58.89
2019-04-28T19:13:50.038Z,59.08
2019-04-28T19:16:36.591Z,59.29
2019-04-28T19:19:07.462Z,59.33
2019-04-28T19:21:35.962Z,59.53
2019-04-28T19:24:04.522Z,59.53
2019-04-28T19:26:33.058Z,59.62
2019-04-28T19:29:01.603Z,59.86
2019-04-28T19:31:30.128Z,60.07
2019-04-28T19:33:58.589Z,60.14
2019-04-28T19:36:27.376Z,60.36
2019-04-28T19:39:02.981Z,60.23
2019-04-28T19:41:26.142Z,60.50
2019-04-28T19:43:54.662Z,60.73
2019-04-28T19:46:23.466Z,60.86
2019-04-28T19:48:51.992Z,60.75
2019-04-28T19:51:31.186Z,60.77
2019-04-28T19:53:51.044Z,60.82
2019-04-28T19:56:28.957Z,60.88
2019-04-28T19:59:06.990Z,61.01
2019-04-28T20:01:35.630Z,61.25
2019-04-28T20:04:04.174Z,61.31
2019-04-28T20:06:32.880Z,61.30
2019-04-28T20:09:01.432Z,61.26
2019-04-28T20:11:29.893Z,61.07
2019-04-28T20:13:58.491Z,61.11
2019-04-28T20:16:27.074Z,61.19
2019-04-28T20:18:55.511Z,61.33
2019-04-28T20:21:24.049Z,61.74
2019-04-28T20:23:52.538Z,61.81
2019-04-28T20:26:21.002Z,61.72
2019-04-28T20:28:49.513Z,61.96
2019-04-28T20:31:17.980Z,61.97
2019-04-28T20:33:46.441Z,62.13
2019-04-28T20:36:23.467Z,61.99
2019-04-28T20:38:55.421Z,62.17
2019-04-28T20:41:25.962Z,62.41
2019-04-28T20:43:55.639Z,62.69
2019-04-28T20:46:24.122Z,62.89
2019-04-28T20:48:52.612Z,62.91
2019-04-28T20:51:21.079Z,62.74
2019-04-28T20:53:49.526Z,62.85
2019-04-28T20:56:18.142Z,63.06
2019-04-28T20:58:46.617Z,63.11
2019-04-28T21:01:15.106Z,63.08
2019-04-28T21:03:43.680Z,63.14
2019-04-28T21:06:12.487Z,63.16
2019-04-28T21:08:40.982Z,63.23
2019-04-28T21:11:09.456Z,63.54
2019-04-28T21:13:37.960Z,63.80
2019-04-28T21:16:06.509Z,63.90
2019-04-28T21:18:34.956Z,63.86
2019-04-28T21:21:03.457Z,63.82
2019-04-28T21:23:31.945Z,63.87
2019-04-28T21:26:00.643Z,64.02
2019-04-28T21:28:29.118Z,64.05
2019-04-28T21:30:57.571Z,63.99
2019-04-28T21:33:26.549Z,64.16
2019-04-28T21:35:55.011Z,63.99
2019-04-28T21:38:23.725Z,63.94
2019-04-28T21:40:52.468Z,63.95
2019-04-28T21:43:32.594Z,64.08
2019-04-28T21:46:18.951Z,64.17
2019-04-28T21:48:50.645Z,64.16
2019-04-28T21:51:19.120Z,64.21
2019-04-28T21:53:47.599Z,64.33
2019-04-28T21:56:16.067Z,64.39
2019-04-28T21:58:44.616Z,64.52
2019-04-28T22:01:15.651Z,64.34
2019-04-28T22:03:44.198Z,64.23
2019-04-28T22:06:12.672Z,64.28
2019-04-28T22:08:41.122Z,64.59
2019-04-28T22:11:09.594Z,64.65
2019-04-28T22:13:38.298Z,64.56
2019-04-28T22:16:06.887Z,64.60
2019-04-28T22:18:35.575Z,64.69
2019-04-28T22:21:04.069Z,65.00
2019-04-28T22:23:46.682Z,65.18
2019-04-28T22:26:34.181Z,65.17
2019-04-28T22:29:02.688Z,65.43
2019-04-28T22:31:31.147Z,65.51
2019-04-28T22:33:59.886Z,65.47
2019-04-28T22:36:28.443Z,65.41
2019-04-28T22:38:56.965Z,65.31
2019-04-28T22:41:25.462Z,65.44
2019-04-28T22:43:53.942Z,65.43
2019-04-28T22:46:22.472Z,65.87
2019-04-28T22:48:52.413Z,65.84
2019-04-28T22:51:20.855Z,65.81
2019-04-28T22:53:49.319Z,65.72
2019-04-28T22:56:52.222Z,65.51
2019-04-28T22:59:30.756Z,65.50
2019-04-28T23:02:03.453Z,65.50
2019-04-28T23:04:36.427Z,65.42
2019-04-28T23:07:06.919Z,65.56
2019-04-28T23:09:35.100Z,65.60
2019-04-28T23:12:04.030Z,65.96
2019-04-28T23:14:32.589Z,66.24
2019-04-28T23:17:01.123Z,66.14
2019-04-28T23:19:32.253Z,66.22
2019-04-28T23:22:09.868Z,66.16
2019-04-28T23:24:38.372Z,67.01
2019-04-28T23:27:06.862Z,66.76
2019-04-28T23:29:35.405Z,66.41
2019-04-28T23:32:03.855Z,66.45
2019-04-28T23:34:32.381Z,66.35
2019-04-28T23:37:00.918Z,66.22
2019-04-28T23:39:29.403Z,66.34
2019-04-28T23:42:02.922Z,66.38
2019-04-28T23:44:31.612Z,66.29
2019-04-28T23:47:00.644Z,66.44
2019-04-28T23:49:29.506Z,66.08
2019-04-28T23:52:08.227Z,66.13
2019-04-28T23:54:38.409Z,66.09
2019-04-28T23:57:07.398Z,66.20
2019-04-28T23:59:36.053Z,66.24
